sensor_id;sensor_type;location;lat;lon;timestamp;P1;durP1;ratioP1;P2;durP2;ratioP2
26269;SDS011;15937;50.612;6.656;2023-04-24T00:02:25;1.48;;;1.10;;
26269;SDS011;15937;50.612;6.656;2023-04-24T00:06:27;3.33;;;1.45;;
26269;SDS011;15937;50.612;6.656;2023-04-24T00:10:34;1.88;;;1.35;;
26269;SDS011;15937;50.612;6.656;2023-04-24T00:14:36;2.13;;;1.27;;
26269;SDS011;15937;50.612;6.656;2023-04-24T00:18:38;1.60;;;1.10;;
26269;SDS011;15937;50.612;6.656;2023-04-24T00:22:40;1.20;;;1.10;;
26269;SDS011;15937;50.612;6.656;2023-04-24T00:26:43;1.30;;;1.20;;
26269;SDS011;15937;50.612;6.656;2023-04-24T00:30:45;1.70;;;1.42;;
26269;SDS011;15937;50.612;6.656;2023-04-24T00:34:46;1.63;;;1.40;;
26269;SDS011;15937;50.612;6.656;2023-04-24T00:38:48;6.85;;;1.42;;
26269;SDS011;15937;50.612;6.656;2023-04-24T00:42:50;2.55;;;1.50;;
26269;SDS011;15937;50.612;6.656;2023-04-24T00:46:51;5.18;;;1.77;;
26269;SDS011;15937;50.612;6.656;2023-04-24T00:50:55;3.53;;;1.77;;
26269;SDS011;15937;50.612;6.656;2023-04-24T00:54:58;5.38;;;1.92;;
26269;SDS011;15937;50.612;6.656;2023-04-24T00:59:00;3.05;;;1.65;;
26269;SDS011;15937;50.612;6.656;2023-04-24T01:03:03;2.47;;;1.85;;
26269;SDS011;15937;50.612;6.656;2023-04-24T01:07:07;4.05;;;2.17;;
26269;SDS011;15937;50.612;6.656;2023-04-24T01:11:11;7.63;;;2.25;;
26269;SDS011;15937;50.612;6.656;2023-04-24T01:15:13;4.60;;;3.60;;
26269;SDS011;15937;50.612;6.656;2023-04-24T01:19:15;4.70;;;2.33;;
26269;SDS011;15937;50.612;6.656;2023-04-24T01:23:19;2.97;;;2.25;;
26269;SDS011;15937;50.612;6.656;2023-04-24T01:27:21;5.73;;;3.63;;
26269;SDS011;15937;50.612;6.656;2023-04-24T01:31:23;6.28;;;3.65;;
26269;SDS011;15937;50.612;6.656;2023-04-24T01:35:25;8.98;;;3.90;;
26269;SDS011;15937;50.612;6.656;2023-04-24T01:39:27;4.87;;;3.13;;
26269;SDS011;15937;50.612;6.656;2023-04-24T01:43:29;5.65;;;3.90;;
26269;SDS011;15937;50.612;6.656;2023-04-24T01:47:32;5.68;;;3.80;;
26269;SDS011;15937;50.612;6.656;2023-04-24T01:51:34;6.25;;;4.07;;
26269;SDS011;15937;50.612;6.656;2023-04-24T01:55:36;8.82;;;3.78;;
26269;SDS011;15937;50.612;6.656;2023-04-24T01:59:38;8.43;;;4.40;;
26269;SDS011;15937;50.612;6.656;2023-04-24T02:03:39;7.07;;;3.67;;
26269;SDS011;15937;50.612;6.656;2023-04-24T02:07:42;6.45;;;3.90;;
26269;SDS011;15937;50.612;6.656;2023-04-24T02:11:43;7.40;;;3.97;;
26269;SDS011;15937;50.612;6.656;2023-04-24T02:15:45;7.72;;;4.55;;
26269;SDS011;15937;50.612;6.656;2023-04-24T02:19:47;10.07;;;4.32;;
26269;SDS011;15937;50.612;6.656;2023-04-24T02:23:48;8.30;;;4.30;;
26269;SDS011;15937;50.612;6.656;2023-04-24T02:27:50;8.65;;;4.78;;
26269;SDS011;15937;50.612;6.656;2023-04-24T02:31:52;9.80;;;5.30;;
26269;SDS011;15937;50.612;6.656;2023-04-24T02:35:53;10.70;;;5.28;;
26269;SDS011;15937;50.612;6.656;2023-04-24T02:39:55;8.13;;;5.18;;
26269;SDS011;15937;50.612;6.656;2023-04-24T02:43:57;10.30;;;5.65;;
26269;SDS011;15937;50.612;6.656;2023-04-24T02:47:59;7.30;;;4.97;;
26269;SDS011;15937;50.612;6.656;2023-04-24T02:52:01;10.50;;;5.82;;
26269;SDS011;15937;50.612;6.656;2023-04-24T02:56:03;8.88;;;5.18;;
26269;SDS011;15937;50.612;6.656;2023-04-24T03:00:05;8.07;;;5.32;;
26269;SDS011;15937;50.612;6.656;2023-04-24T03:04:08;9.68;;;5.07;;
26269;SDS011;15937;50.612;6.656;2023-04-24T03:08:11;8.70;;;5.10;;
26269;SDS011;15937;50.612;6.656;2023-04-24T03:12:13;9.45;;;5.40;;
26269;SDS011;15937;50.612;6.656;2023-04-24T03:16:15;10.82;;;5.72;;
26269;SDS011;15937;50.612;6.656;2023-04-24T03:20:17;9.90;;;5.25;;
26269;SDS011;15937;50.612;6.656;2023-04-24T03:24:19;11.90;;;5.63;;
26269;SDS011;15937;50.612;6.656;2023-04-24T03:28:21;11.57;;;5.82;;
26269;SDS011;15937;50.612;6.656;2023-04-24T03:32:23;8.60;;;5.88;;
26269;SDS011;15937;50.612;6.656;2023-04-24T03:36:25;8.48;;;5.07;;
26269;SDS011;15937;50.612;6.656;2023-04-24T03:40:27;12.70;;;6.00;;
26269;SDS011;15937;50.612;6.656;2023-04-24T03:44:30;10.98;;;6.32;;
26269;SDS011;15937;50.612;6.656;2023-04-24T03:48:32;8.23;;;5.93;;
26269;SDS011;15937;50.612;6.656;2023-04-24T03:52:34;9.55;;;6.78;;
26269;SDS011;15937;50.612;6.656;2023-04-24T03:56:36;14.45;;;6.80;;
26269;SDS011;15937;50.612;6.656;2023-04-24T04:00:38;7.93;;;5.30;;
26269;SDS011;15937;50.612;6.656;2023-04-24T04:04:41;9.63;;;6.07;;
26269;SDS011;15937;50.612;6.656;2023-04-24T04:08:43;11.10;;;5.85;;
26269;SDS011;15937;50.612;6.656;2023-04-24T04:12:53;12.45;;;6.72;;
26269;SDS011;15937;50.612;6.656;2023-04-24T04:16:58;14.35;;;6.53;;
26269;SDS011;15937;50.612;6.656;2023-04-24T04:20:59;9.82;;;6.05;;
26269;SDS011;15937;50.612;6.656;2023-04-24T04:25:02;12.05;;;6.75;;
26269;SDS011;15937;50.612;6.656;2023-04-24T04:29:04;9.27;;;5.77;;
26269;SDS011;15937;50.612;6.656;2023-04-24T04:33:10;11.85;;;6.10;;
26269;SDS011;15937;50.612;6.656;2023-04-24T04:37:12;12.68;;;6.80;;
26269;SDS011;15937;50.612;6.656;2023-04-24T04:41:13;9.55;;;6.28;;
26269;SDS011;15937;50.612;6.656;2023-04-24T04:45:19;13.18;;;6.35;;
26269;SDS011;15937;50.612;6.656;2023-04-24T04:49:21;11.73;;;7.07;;
26269;SDS011;15937;50.612;6.656;2023-04-24T04:57:27;11.85;;;6.35;;
26269;SDS011;15937;50.612;6.656;2023-04-24T05:01:29;19.35;;;6.53;;
26269;SDS011;15937;50.612;6.656;2023-04-24T05:05:31;14.43;;;6.70;;
26269;SDS011;15937;50.612;6.656;2023-04-24T05:10:02;10.45;;;6.65;;
26269;SDS011;15937;50.612;6.656;2023-04-24T05:14:05;10.80;;;5.80;;
26269;SDS011;15937;50.612;6.656;2023-04-24T05:18:19;12.55;;;7.15;;
26269;SDS011;15937;50.612;6.656;2023-04-24T05:22:29;16.50;;;6.93;;
26269;SDS011;15937;50.612;6.656;2023-04-24T05:26:31;12.27;;;6.40;;
26269;SDS011;15937;50.612;6.656;2023-04-24T05:30:36;11.02;;;6.32;;
26269;SDS011;15937;50.612;6.656;2023-04-24T05:34:52;9.35;;;6.22;;
26269;SDS011;15937;50.612;6.656;2023-04-24T05:38:53;14.00;;;6.22;;
26269;SDS011;15937;50.612;6.656;2023-04-24T05:42:58;8.35;;;4.93;;
26269;SDS011;15937;50.612;6.656;2023-04-24T05:47:13;8.38;;;5.55;;
26269;SDS011;15937;50.612;6.656;2023-04-24T05:51:15;7.70;;;4.82;;
26269;SDS011;15937;50.612;6.656;2023-04-24T05:55:17;10.27;;;4.57;;
26269;SDS011;15937;50.612;6.656;2023-04-24T05:59:19;5.83;;;4.50;;
26269;SDS011;15937;50.612;6.656;2023-04-24T06:03:21;7.75;;;3.97;;
26269;SDS011;15937;50.612;6.656;2023-04-24T06:07:23;6.77;;;3.90;;
26269;SDS011;15937;50.612;6.656;2023-04-24T06:11:25;5.47;;;3.55;;
26269;SDS011;15937;50.612;6.656;2023-04-24T06:15:28;4.45;;;3.10;;
26269;SDS011;15937;50.612;6.656;2023-04-24T06:19:31;4.82;;;3.50;;
26269;SDS011;15937;50.612;6.656;2023-04-24T06:23:33;4.45;;;2.70;;
26269;SDS011;15937;50.612;6.656;2023-04-24T06:27:34;7.40;;;3.10;;
26269;SDS011;15937;50.612;6.656;2023-04-24T06:31:36;4.13;;;2.85;;
26269;SDS011;15937;50.612;6.656;2023-04-24T06:35:38;4.18;;;2.63;;
26269;SDS011;15937;50.612;6.656;2023-04-24T06:39:40;5.95;;;2.00;;
26269;SDS011;15937;50.612;6.656;2023-04-24T06:43:42;5.32;;;2.92;;
26269;SDS011;15937;50.612;6.656;2023-04-24T06:47:44;3.87;;;2.10;;
26269;SDS011;15937;50.612;6.656;2023-04-24T06:51:46;3.28;;;2.40;;
26269;SDS011;15937;50.612;6.656;2023-04-24T06:55:48;4.13;;;2.13;;
26269;SDS011;15937;50.612;6.656;2023-04-24T06:59:50;3.20;;;2.33;;
26269;SDS011;15937;50.612;6.656;2023-04-24T07:03:52;2.38;;;2.10;;
26269;SDS011;15937;50.612;6.656;2023-04-24T07:07:54;1.92;;;1.77;;
26269;SDS011;15937;50.612;6.656;2023-04-24T07:11:56;1.95;;;1.67;;
26269;SDS011;15937;50.612;6.656;2023-04-24T07:15:57;1.55;;;1.45;;
26269;SDS011;15937;50.612;6.656;2023-04-24T07:19:59;3.85;;;1.80;;
26269;SDS011;15937;50.612;6.656;2023-04-24T07:24:01;1.40;;;1.13;;
26269;SDS011;15937;50.612;6.656;2023-04-24T07:28:03;2.15;;;1.48;;
26269;SDS011;15937;50.612;6.656;2023-04-24T07:32:05;1.60;;;1.40;;
26269;SDS011;15937;50.612;6.656;2023-04-24T07:40:16;2.63;;;1.67;;
26269;SDS011;15937;50.612;6.656;2023-04-24T07:44:18;4.03;;;1.58;;
26269;SDS011;15937;50.612;6.656;2023-04-24T07:48:20;7.57;;;1.55;;
26269;SDS011;15937;50.612;6.656;2023-04-24T07:56:24;1.60;;;1.30;;
26269;SDS011;15937;50.612;6.656;2023-04-24T08:00:28;2.08;;;1.20;;
26269;SDS011;15937;50.612;6.656;2023-04-24T08:04:29;1.60;;;1.50;;
26269;SDS011;15937;50.612;6.656;2023-04-24T08:08:32;3.40;;;1.83;;
26269;SDS011;15937;50.612;6.656;2023-04-24T08:12:34;2.17;;;1.50;;
26269;SDS011;15937;50.612;6.656;2023-04-24T08:16:36;1.10;;;1.10;;
26269;SDS011;15937;50.612;6.656;2023-04-24T08:20:38;4.32;;;1.55;;
26269;SDS011;15937;50.612;6.656;2023-04-24T08:24:40;1.50;;;1.35;;
26269;SDS011;15937;50.612;6.656;2023-04-24T08:28:42;3.70;;;1.23;;
26269;SDS011;15937;50.612;6.656;2023-04-24T08:32:44;1.80;;;1.30;;
26269;SDS011;15937;50.612;6.656;2023-04-24T08:36:45;1.30;;;1.20;;
26269;SDS011;15937;50.612;6.656;2023-04-24T08:40:48;1.73;;;1.00;;
26269;SDS011;15937;50.612;6.656;2023-04-24T08:44:50;3.33;;;1.33;;
26269;SDS011;15937;50.612;6.656;2023-04-24T08:48:52;2.35;;;1.70;;
26269;SDS011;15937;50.612;6.656;2023-04-24T08:52:54;2.58;;;1.20;;
26269;SDS011;15937;50.612;6.656;2023-04-24T08:56:58;1.92;;;1.70;;
26269;SDS011;15937;50.612;6.656;2023-04-24T09:01:05;1.52;;;1.42;;
26269;SDS011;15937;50.612;6.656;2023-04-24T09:05:07;1.60;;;1.40;;
26269;SDS011;15937;50.612;6.656;2023-04-24T09:09:10;1.40;;;1.30;;
26269;SDS011;15937;50.612;6.656;2023-04-24T09:13:15;1.60;;;1.50;;
26269;SDS011;15937;50.612;6.656;2023-04-24T09:17:17;1.95;;;1.50;;
26269;SDS011;15937;50.612;6.656;2023-04-24T09:21:20;2.60;;;1.70;;
26269;SDS011;15937;50.612;6.656;2023-04-24T09:25:31;2.33;;;1.88;;
26269;SDS011;15937;50.612;6.656;2023-04-24T09:29:34;5.03;;;1.98;;
26269;SDS011;15937;50.612;6.656;2023-04-24T09:33:36;3.58;;;2.53;;
26269;SDS011;15937;50.612;6.656;2023-04-24T09:37:42;4.60;;;3.10;;
26269;SDS011;15937;50.612;6.656;2023-04-24T09:41:49;4.72;;;3.33;;
26269;SDS011;15937;50.612;6.656;2023-04-24T09:45:58;4.40;;;3.27;;
26269;SDS011;15937;50.612;6.656;2023-04-24T09:50:15;4.93;;;3.38;;
26269;SDS011;15937;50.612;6.656;2023-04-24T09:54:19;6.82;;;3.60;;
26269;SDS011;15937;50.612;6.656;2023-04-24T09:58:26;4.93;;;2.88;;
26269;SDS011;15937;50.612;6.656;2023-04-24T10:02:28;9.77;;;3.85;;
26269;SDS011;15937;50.612;6.656;2023-04-24T10:06:33;6.20;;;2.90;;
26269;SDS011;15937;50.612;6.656;2023-04-24T10:10:42;6.07;;;3.40;;
26269;SDS011;15937;50.612;6.656;2023-04-24T10:14:45;6.13;;;3.95;;
26269;SDS011;15937;50.612;6.656;2023-04-24T10:18:49;5.00;;;3.05;;
26269;SDS011;15937;50.612;6.656;2023-04-24T10:22:52;5.93;;;3.13;;
26269;SDS011;15937;50.612;6.656;2023-04-24T10:26:54;7.60;;;3.00;;
26269;SDS011;15937;50.612;6.656;2023-04-24T10:30:58;4.28;;;3.38;;
26269;SDS011;15937;50.612;6.656;2023-04-24T10:35:00;9.80;;;4.03;;
26269;SDS011;15937;50.612;6.656;2023-04-24T10:39:02;14.57;;;4.40;;
26269;SDS011;15937;50.612;6.656;2023-04-24T10:43:07;7.65;;;4.07;;
26269;SDS011;15937;50.612;6.656;2023-04-24T10:47:12;8.52;;;4.68;;
26269;SDS011;15937;50.612;6.656;2023-04-24T10:51:15;15.02;;;4.68;;
26269;SDS011;15937;50.612;6.656;2023-04-24T10:55:29;9.10;;;4.47;;
26269;SDS011;15937;50.612;6.656;2023-04-24T11:00:12;14.50;;;5.78;;
26269;SDS011;15937;50.612;6.656;2023-04-24T11:04:14;10.68;;;5.82;;
26269;SDS011;15937;50.612;6.656;2023-04-24T11:12:45;15.70;;;5.40;;
26269;SDS011;15937;50.612;6.656;2023-04-24T11:16:53;9.70;;;4.95;;
26269;SDS011;15937;50.612;6.656;2023-04-24T11:20:59;10.05;;;4.43;;
26269;SDS011;15937;50.612;6.656;2023-04-24T11:25:10;10.45;;;4.93;;
26269;SDS011;15937;50.612;6.656;2023-04-24T11:29:15;12.07;;;5.88;;
26269;SDS011;15937;50.612;6.656;2023-04-24T11:33:21;13.45;;;6.15;;
26269;SDS011;15937;50.612;6.656;2023-04-24T11:37:24;12.43;;;7.30;;
26269;SDS011;15937;50.612;6.656;2023-04-24T11:41:28;17.88;;;7.53;;
26269;SDS011;15937;50.612;6.656;2023-04-24T11:45:30;16.10;;;7.57;;
26269;SDS011;15937;50.612;6.656;2023-04-24T11:49:32;24.10;;;8.37;;
26269;SDS011;15937;50.612;6.656;2023-04-24T11:53:34;15.60;;;7.47;;
26269;SDS011;15937;50.612;6.656;2023-04-24T11:57:37;17.63;;;7.43;;
26269;SDS011;15937;50.612;6.656;2023-04-24T12:01:43;18.83;;;7.80;;
26269;SDS011;15937;50.612;6.656;2023-04-24T12:05:48;18.38;;;7.85;;
26269;SDS011;15937;50.612;6.656;2023-04-24T12:09:57;15.18;;;7.05;;
26269;SDS011;15937;50.612;6.656;2023-04-24T12:14:10;13.88;;;6.20;;
26269;SDS011;15937;50.612;6.656;2023-04-24T12:18:13;12.55;;;5.65;;
26269;SDS011;15937;50.612;6.656;2023-04-24T12:22:15;11.77;;;6.38;;
26269;SDS011;15937;50.612;6.656;2023-04-24T12:26:18;13.35;;;5.80;;
26269;SDS011;15937;50.612;6.656;2023-04-24T12:30:21;14.63;;;6.00;;
26269;SDS011;15937;50.612;6.656;2023-04-24T12:34:28;14.38;;;5.63;;
26269;SDS011;15937;50.612;6.656;2023-04-24T12:38:32;13.98;;;7.30;;
26269;SDS011;15937;50.612;6.656;2023-04-24T12:42:42;20.42;;;6.53;;
26269;SDS011;15937;50.612;6.656;2023-04-24T12:46:45;15.82;;;5.50;;
26269;SDS011;15937;50.612;6.656;2023-04-24T12:50:47;14.02;;;5.90;;
26269;SDS011;15937;50.612;6.656;2023-04-24T12:54:50;11.48;;;5.80;;
26269;SDS011;15937;50.612;6.656;2023-04-24T12:58:52;11.82;;;5.93;;
26269;SDS011;15937;50.612;6.656;2023-04-24T13:02:53;16.50;;;6.03;;
26269;SDS011;15937;50.612;6.656;2023-04-24T13:06:56;11.05;;;5.65;;
26269;SDS011;15937;50.612;6.656;2023-04-24T13:10:58;17.83;;;5.85;;
26269;SDS011;15937;50.612;6.656;2023-04-24T13:14:59;12.93;;;5.32;;
26269;SDS011;15937;50.612;6.656;2023-04-24T13:19:02;13.70;;;5.25;;
26269;SDS011;15937;50.612;6.656;2023-04-24T13:23:03;9.70;;;4.72;;
26269;SDS011;15937;50.612;6.656;2023-04-24T13:27:05;13.65;;;5.25;;
26269;SDS011;15937;50.612;6.656;2023-04-24T13:31:07;11.77;;;5.72;;
26269;SDS011;15937;50.612;6.656;2023-04-24T13:35:09;13.23;;;5.35;;
26269;SDS011;15937;50.612;6.656;2023-04-24T13:39:11;13.70;;;6.25;;
26269;SDS011;15937;50.612;6.656;2023-04-24T13:43:12;14.45;;;5.88;;
26269;SDS011;15937;50.612;6.656;2023-04-24T13:47:14;15.10;;;6.05;;
26269;SDS011;15937;50.612;6.656;2023-04-24T13:51:16;13.40;;;6.35;;
26269;SDS011;15937;50.612;6.656;2023-04-24T13:55:18;13.77;;;6.07;;
26269;SDS011;15937;50.612;6.656;2023-04-24T13:59:20;13.38;;;6.53;;
26269;SDS011;15937;50.612;6.656;2023-04-24T14:03:24;9.77;;;6.10;;
26269;SDS011;15937;50.612;6.656;2023-04-24T14:07:27;11.93;;;5.63;;
26269;SDS011;15937;50.612;6.656;2023-04-24T14:11:29;12.77;;;6.10;;
26269;SDS011;15937;50.612;6.656;2023-04-24T14:15:31;12.82;;;5.70;;
26269;SDS011;15937;50.612;6.656;2023-04-24T14:19:32;20.00;;;5.85;;
26269;SDS011;15937;50.612;6.656;2023-04-24T14:23:34;12.30;;;6.63;;
26269;SDS011;15937;50.612;6.656;2023-04-24T14:27:36;14.93;;;5.82;;
26269;SDS011;15937;50.612;6.656;2023-04-24T14:31:38;15.37;;;6.17;;
26269;SDS011;15937;50.612;6.656;2023-04-24T14:35:40;16.80;;;6.30;;
26269;SDS011;15937;50.612;6.656;2023-04-24T14:39:45;12.57;;;5.95;;
26269;SDS011;15937;50.612;6.656;2023-04-24T15:09:03;9.30;;;6.72;;
26269;SDS011;15937;50.612;6.656;2023-04-24T15:13:16;10.63;;;5.55;;
26269;SDS011;15937;50.612;6.656;2023-04-24T15:22:40;16.50;;;7.45;;
26269;SDS011;15937;50.612;6.656;2023-04-24T15:27:02;17.02;;;8.88;;
26269;SDS011;15937;50.612;6.656;2023-04-24T15:31:20;13.55;;;6.75;;
26269;SDS011;15937;50.612;6.656;2023-04-24T15:40:42;18.90;;;6.70;;
26269;SDS011;15937;50.612;6.656;2023-04-24T15:45:19;14.63;;;7.00;;
26269;SDS011;15937;50.612;6.656;2023-04-24T15:50:01;15.55;;;6.30;;
26269;SDS011;15937;50.612;6.656;2023-04-24T15:54:34;10.85;;;6.50;;
26269;SDS011;15937;50.612;6.656;2023-04-24T15:58:35;10.63;;;6.70;;
26269;SDS011;15937;50.612;6.656;2023-04-24T16:02:37;17.67;;;6.63;;
26269;SDS011;15937;50.612;6.656;2023-04-24T16:06:40;13.47;;;6.20;;
26269;SDS011;15937;50.612;6.656;2023-04-24T16:10:41;11.07;;;6.20;;
26269;SDS011;15937;50.612;6.656;2023-04-24T16:14:44;14.73;;;5.87;;
26269;SDS011;15937;50.612;6.656;2023-04-24T16:18:45;12.68;;;6.75;;
26269;SDS011;15937;50.612;6.656;2023-04-24T16:22:48;11.68;;;6.40;;
26269;SDS011;15937;50.612;6.656;2023-04-24T16:26:50;11.90;;;6.25;;
26269;SDS011;15937;50.612;6.656;2023-04-24T16:30:52;16.15;;;6.63;;
26269;SDS011;15937;50.612;6.656;2023-04-24T16:34:54;19.77;;;6.65;;
26269;SDS011;15937;50.612;6.656;2023-04-24T16:38:55;16.08;;;7.03;;
26269;SDS011;15937;50.612;6.656;2023-04-24T16:42:57;15.60;;;7.60;;
26269;SDS011;15937;50.612;6.656;2023-04-24T16:46:59;12.27;;;6.70;;
26269;SDS011;15937;50.612;6.656;2023-04-24T16:51:01;15.83;;;7.60;;
26269;SDS011;15937;50.612;6.656;2023-04-24T16:55:03;12.27;;;6.78;;
26269;SDS011;15937;50.612;6.656;2023-04-24T16:59:06;13.43;;;7.43;;
26269;SDS011;15937;50.612;6.656;2023-04-24T17:03:08;17.35;;;7.45;;
26269;SDS011;15937;50.612;6.656;2023-04-24T17:07:13;18.83;;;7.85;;
26269;SDS011;15937;50.612;6.656;2023-04-24T17:11:14;16.63;;;7.93;;
26269;SDS011;15937;50.612;6.656;2023-04-24T17:15:16;15.27;;;7.53;;
26269;SDS011;15937;50.612;6.656;2023-04-24T17:19:18;13.20;;;6.95;;
26269;SDS011;15937;50.612;6.656;2023-04-24T17:23:19;11.88;;;7.40;;
26269;SDS011;15937;50.612;6.656;2023-04-24T17:27:21;12.20;;;7.63;;
26269;SDS011;15937;50.612;6.656;2023-04-24T17:31:25;14.13;;;7.70;;
26269;SDS011;15937;50.612;6.656;2023-04-24T17:35:26;10.52;;;6.80;;
26269;SDS011;15937;50.612;6.656;2023-04-24T17:39:28;10.30;;;6.93;;
26269;SDS011;15937;50.612;6.656;2023-04-24T17:43:30;16.20;;;7.55;;
26269;SDS011;15937;50.612;6.656;2023-04-24T17:47:31;14.70;;;7.57;;
26269;SDS011;15937;50.612;6.656;2023-04-24T17:51:33;17.15;;;8.13;;
26269;SDS011;15937;50.612;6.656;2023-04-24T17:55:35;15.40;;;7.78;;
26269;SDS011;15937;50.612;6.656;2023-04-24T17:59:38;15.23;;;8.45;;
26269;SDS011;15937;50.612;6.656;2023-04-24T18:03:39;14.70;;;8.60;;
26269;SDS011;15937;50.612;6.656;2023-04-24T18:07:44;24.05;;;9.50;;
26269;SDS011;15937;50.612;6.656;2023-04-24T18:11:45;20.58;;;9.63;;
26269;SDS011;15937;50.612;6.656;2023-04-24T18:15:49;17.25;;;9.02;;
26269;SDS011;15937;50.612;6.656;2023-04-24T18:19:51;24.20;;;10.73;;
26269;SDS011;15937;50.612;6.656;2023-04-24T18:23:53;21.17;;;9.43;;
26269;SDS011;15937;50.612;6.656;2023-04-24T18:27:55;23.70;;;10.07;;
26269;SDS011;15937;50.612;6.656;2023-04-24T18:31:57;22.23;;;11.68;;
26269;SDS011;15937;50.612;6.656;2023-04-24T18:35:59;18.88;;;10.43;;
26269;SDS011;15937;50.612;6.656;2023-04-24T18:40:00;22.42;;;12.65;;
26269;SDS011;15937;50.612;6.656;2023-04-24T18:44:03;24.63;;;12.57;;
26269;SDS011;15937;50.612;6.656;2023-04-24T18:48:05;24.92;;;11.23;;
26269;SDS011;15937;50.612;6.656;2023-04-24T18:52:07;21.90;;;10.70;;
26269;SDS011;15937;50.612;6.656;2023-04-24T18:56:08;22.63;;;11.93;;
26269;SDS011;15937;50.612;6.656;2023-04-24T19:00:10;23.52;;;9.93;;
26269;SDS011;15937;50.612;6.656;2023-04-24T19:04:12;17.90;;;10.15;;
26269;SDS011;15937;50.612;6.656;2023-04-24T19:12:17;19.45;;;10.73;;
26269;SDS011;15937;50.612;6.656;2023-04-24T19:16:22;18.73;;;10.32;;
26269;SDS011;15937;50.612;6.656;2023-04-24T19:20:25;24.65;;;10.80;;
26269;SDS011;15937;50.612;6.656;2023-04-24T19:24:27;22.13;;;10.88;;
26269;SDS011;15937;50.612;6.656;2023-04-24T19:28:29;20.97;;;11.17;;
26269;SDS011;15937;50.612;6.656;2023-04-24T19:32:32;26.40;;;11.57;;
26269;SDS011;15937;50.612;6.656;2023-04-24T19:36:40;22.05;;;11.95;;
26269;SDS011;15937;50.612;6.656;2023-04-24T19:40:43;20.83;;;12.30;;
26269;SDS011;15937;50.612;6.656;2023-04-24T19:44:57;23.23;;;11.55;;
26269;SDS011;15937;50.612;6.656;2023-04-24T19:48:58;24.17;;;12.68;;
26269;SDS011;15937;50.612;6.656;2023-04-24T19:53:00;26.67;;;13.48;;
26269;SDS011;15937;50.612;6.656;2023-04-24T19:57:02;25.63;;;12.60;;
26269;SDS011;15937;50.612;6.656;2023-04-24T20:01:04;21.48;;;13.13;;
26269;SDS011;15937;50.612;6.656;2023-04-24T20:05:06;32.20;;;14.27;;
26269;SDS011;15937;50.612;6.656;2023-04-24T20:09:08;25.27;;;13.02;;
26269;SDS011;15937;50.612;6.656;2023-04-24T20:13:10;25.70;;;13.77;;
26269;SDS011;15937;50.612;6.656;2023-04-24T20:17:13;25.27;;;12.57;;
26269;SDS011;15937;50.612;6.656;2023-04-24T20:21:15;17.05;;;10.00;;
26269;SDS011;15937;50.612;6.656;2023-04-24T20:25:17;19.42;;;10.23;;
26269;SDS011;15937;50.612;6.656;2023-04-24T20:29:18;11.55;;;7.75;;
26269;SDS011;15937;50.612;6.656;2023-04-24T20:33:20;18.63;;;8.25;;
26269;SDS011;15937;50.612;6.656;2023-04-24T20:37:22;21.02;;;11.80;;
26269;SDS011;15937;50.612;6.656;2023-04-24T20:41:25;18.93;;;10.73;;
26269;SDS011;15937;50.612;6.656;2023-04-24T20:45:26;20.40;;;9.77;;
26269;SDS011;15937;50.612;6.656;2023-04-24T20:49:28;24.55;;;10.80;;
26269;SDS011;15937;50.612;6.656;2023-04-24T20:53:30;22.33;;;10.25;;
26269;SDS011;15937;50.612;6.656;2023-04-24T20:57:31;19.20;;;10.48;;
26269;SDS011;15937;50.612;6.656;2023-04-24T21:01:33;19.73;;;9.90;;
26269;SDS011;15937;50.612;6.656;2023-04-24T21:05:35;17.38;;;9.52;;
26269;SDS011;15937;50.612;6.656;2023-04-24T21:09:37;24.70;;;11.75;;
26269;SDS011;15937;50.612;6.656;2023-04-24T21:13:38;26.52;;;11.13;;
26269;SDS011;15937;50.612;6.656;2023-04-24T21:17:40;24.80;;;11.23;;
26269;SDS011;15937;50.612;6.656;2023-04-24T21:21:42;18.73;;;10.30;;
26269;SDS011;15937;50.612;6.656;2023-04-24T21:25:44;18.80;;;10.82;;
26269;SDS011;15937;50.612;6.656;2023-04-24T21:29:45;22.08;;;11.18;;
26269;SDS011;15937;50.612;6.656;2023-04-24T21:33:47;23.55;;;11.52;;
26269;SDS011;15937;50.612;6.656;2023-04-24T21:37:49;26.75;;;11.15;;
26269;SDS011;15937;50.612;6.656;2023-04-24T21:41:51;26.25;;;11.50;;
26269;SDS011;15937;50.612;6.656;2023-04-24T21:45:53;20.17;;;10.85;;
26269;SDS011;15937;50.612;6.656;2023-04-24T21:49:56;24.23;;;10.05;;
26269;SDS011;15937;50.612;6.656;2023-04-24T21:53:58;19.00;;;9.73;;
26269;SDS011;15937;50.612;6.656;2023-04-24T21:58:00;21.83;;;10.50;;
26269;SDS011;15937;50.612;6.656;2023-04-24T22:02:02;20.40;;;10.95;;
26269;SDS011;15937;50.612;6.656;2023-04-24T22:06:04;18.03;;;9.37;;
26269;SDS011;15937;50.612;6.656;2023-04-24T22:10:06;18.10;;;9.50;;
26269;SDS011;15937;50.612;6.656;2023-04-24T22:14:08;17.98;;;8.88;;
26269;SDS011;15937;50.612;6.656;2023-04-24T22:18:11;20.58;;;9.10;;
26269;SDS011;15937;50.612;6.656;2023-04-24T22:22:17;20.50;;;8.63;;
26269;SDS011;15937;50.612;6.656;2023-04-24T22:26:19;23.65;;;9.30;;
26269;SDS011;15937;50.612;6.656;2023-04-24T22:30:21;16.35;;;8.20;;
26269;SDS011;15937;50.612;6.656;2023-04-24T22:34:23;16.60;;;8.00;;
26269;SDS011;15937;50.612;6.656;2023-04-24T22:38:24;16.27;;;7.18;;
26269;SDS011;15937;50.612;6.656;2023-04-24T22:42:27;14.00;;;6.53;;
26269;SDS011;15937;50.612;6.656;2023-04-24T22:46:29;20.42;;;6.50;;
26269;SDS011;15937;50.612;6.656;2023-04-24T22:50:31;15.27;;;5.28;;
26269;SDS011;15937;50.612;6.656;2023-04-24T22:54:32;21.55;;;7.05;;
26269;SDS011;15937;50.612;6.656;2023-04-24T22:58:34;18.40;;;7.38;;
26269;SDS011;15937;50.612;6.656;2023-04-24T23:02:37;16.75;;;6.97;;
26269;SDS011;15937;50.612;6.656;2023-04-24T23:06:40;13.55;;;6.40;;
26269;SDS011;15937;50.612;6.656;2023-04-24T23:10:41;17.40;;;6.93;;
26269;SDS011;15937;50.612;6.656;2023-04-24T23:14:43;15.45;;;6.97;;
26269;SDS011;15937;50.612;6.656;2023-04-24T23:18:45;17.33;;;5.93;;
26269;SDS011;15937;50.612;6.656;2023-04-24T23:22:47;11.35;;;6.05;;
26269;SDS011;15937;50.612;6.656;2023-04-24T23:26:48;15.02;;;5.70;;
26269;SDS011;15937;50.612;6.656;2023-04-24T23:30:50;20.38;;;7.25;;
26269;SDS011;15937;50.612;6.656;2023-04-24T23:34:52;17.13;;;6.68;;
26269;SDS011;15937;50.612;6.656;2023-04-24T23:38:54;16.23;;;6.25;;
26269;SDS011;15937;50.612;6.656;2023-04-24T23:42:55;16.42;;;6.43;;
26269;SDS011;15937;50.612;6.656;2023-04-24T23:47:07;15.85;;;6.43;;
26269;SDS011;15937;50.612;6.656;2023-04-24T23:51:09;19.00;;;6.38;;
26269;SDS011;15937;50.612;6.656;2023-04-24T23:55:11;10.10;;;5.85;;
26269;SDS011;15937;50.612;6.656;2023-04-24T23:59:13;12.80;;;6.78;;
